Latest Coastal Weather Observations for Red Rocks Point

IDW60701

Issued at 1:22 am WST Monday 30 March 2015 (issued every 10 minutes, with the page automatically refreshed every 10 minutes)

About coastal observations | Map of coastal stations | Coastal observations for WA | Marine services | Other Formats
Station Details ID: 011053 Name: RED ROCKS POINT Lat: -32.20 Lon: 127.53 Height: 3.1 m
Data from the previous 72 hours. | See also: Recent months for locations in Western Australia
Date/Time
WST
Temp

°C
Wind Pressure Rain
since 9am
mm
Weather Cloud Vis
km
Sea
Height
m
Swell
Dir
 
Speed
knots
Gust
knots
hPa Trend Height
m
Period
s
Dir
30/01:00am 19.8 E 8 9 1021.8 - 0.0 - - - - - - -
30/12:30am 19.7 E 9 10 1021.8 - 0.0 - - - - - - -
30/12:00am 19.7 ESE 8 9 1022.0 - 0.0 - - - - - - -
 
Date/Time
WST
Temp

°C
Wind Pressure Rain
since 9am
mm
Weather Cloud Vis
km
Sea
Height
m
Swell
Dir
 
Speed
knots
Gust
knots
hPa Trend Height
m
Period
s
Dir
29/11:30pm 19.9 ESE 9 11 1022.0 - 0.0 - - - - - - -
29/11:00pm 20.0 ESE 9 11 1022.2 - 0.0 - - - - - - -
29/10:30pm 20.0 ESE 8 11 1022.8 - 0.0 - - - - - - -
29/10:00pm 20.1 ESE 8 10 1023.0 - 0.0 - - - - - - -
29/09:30pm 20.0 ESE 8 9 1023.1 - 0.0 - - - - - - -
29/09:00pm 20.2 ESE 9 11 1023.1 - 0.0 - - - - - - -
29/08:30pm 20.1 ESE 9 11 1023.3 - 0.0 - - - - - - -
29/08:00pm 20.2 ESE 9 11 1023.3 - 0.0 - - - - - - -
29/07:30pm 20.2 ESE 9 11 1022.9 - 0.0 - - - - - - -
29/07:00pm 20.2 SE 9 11 1022.7 - 0.0 - - - - - - -
29/06:30pm 20.2 SE 9 11 1022.3 - 0.0 - - - - - - -
29/06:00pm 20.2 SSE 10 11 1022.0 - 0.0 - - - - - - -
29/05:30pm 20.4 SE 10 12 1021.8 - 0.0 - - - - - - -
29/05:00pm 20.8 SSE 11 13 1021.7 - 0.0 - - - - - - -
29/04:30pm 21.4 SE 10 12 1021.5 - 0.0 - - - - - - -
29/04:00pm 21.4 SE 11 13 1021.4 - 0.0 - - - - - - -
29/03:30pm 21.7 SSE 13 14 1021.4 - 0.0 - - - - - - -
29/03:00pm 21.9 S 12 14 1021.4 - 0.0 - - - - - - -
29/02:30pm 22.7 SSE 8 10 1021.2 - 0.0 - - - - - - -
29/02:00pm 23.2 SSE 8 9 1021.1 - 0.0 - - - - - - -
29/01:30pm 23.2 SSE 8 9 1021.2 - 0.0 - - - - - - -
29/01:00pm 23.1 SSE 7 8 1021.4 - 0.0 - - - - - - -
29/12:30pm 23.5 SSE 8 10 1021.4 - 0.0 - - - - - - -
29/12:00pm 23.0 SSE 7 8 1021.7 - 0.0 - - - - - - -
29/11:30am 23.4 SSE 7 8 1022.1 - 0.0 - - - - - - -
29/11:00am 22.6 ESE 6 6 1022.6 - 0.0 - - - - - - -
29/10:30am 22.6 ESE 6 7 1022.7 - 0.0 - - - - - - -
29/10:00am 22.9 E 5 6 1023.0 - 0.0 - - - - - - -
29/09:30am 21.6 ESE 4 5 1023.1 - 0.0 - - - - - - -
29/09:00am 20.7 ESE 3 4 1023.1 - 0.8 - - - - - - -
29/08:30am 20.0 E 3 4 1023.1 - 0.8 - - - - - - -
29/08:00am 19.2 CALM 0 0 1022.8 - 0.8 - - - - - - -
29/07:30am 17.7 W 4 5 1022.5 - 0.8 - - - - - - -
29/07:00am 15.5 WNW 6 8 1022.0 - 0.8 - - - - - - -
29/06:30am 14.1 WNW 8 10 1021.8 - 0.8 - - - - - - -
29/06:00am 12.5 WNW 9 10 1021.4 - 0.8 - - - - - - -
29/05:30am 13.1 WNW 9 10 1021.0 - 0.8 - - - - - - -
29/05:00am 13.1 NW 9 10 1020.6 - 0.8 - - - - - - -
29/04:30am 12.9 WNW 9 11 1020.4 - 0.8 - - - - - - -
29/04:00am 12.9 NW 9 10 1020.3 - 0.8 - - - - - - -
29/03:30am 13.0 NW 8 8 1020.0 - 0.8 - - - - - - -
29/03:00am 13.3 NNW 8 8 1019.8 - 0.8 - - - - - - -
29/02:30am 13.9 NW 7 8 1019.9 - 0.8 - - - - - - -
29/02:00am 14.1 WNW 7 8 1019.9 - 0.8 - - - - - - -
29/01:30am 14.1 NW 7 7 1019.9 - 0.8 - - - - - - -
29/01:00am 14.5 NW 6 6 1019.9 - 0.8 - - - - - - -
29/12:30am 14.2 NW 7 8 1020.0 - 0.8 - - - - - - -
29/12:00am 15.1 NW 7 8 1020.1 - 0.8 - - - - - - -
 
Date/Time
WST
Temp

°C
Wind Pressure Rain
since 9am
mm
Weather Cloud Vis
km
Sea
Height
m
Swell
Dir
 
Speed
knots
Gust
knots
hPa Trend Height
m
Period
s
Dir
28/11:30pm 15.2 NNW 6 7 1020.1 - 0.8 - - - - - - -
28/11:00pm 15.3 N 4 6 1020.0 - 0.8 - - - - - - -
28/10:30pm 16.0 N 4 5 1020.1 - 0.8 - - - - - - -
28/10:00pm 16.5 NNE 5 6 1020.1 - 0.8 - - - - - - -
28/09:30pm 16.3 NNE 5 6 1020.2 - 0.8 - - - - - - -
28/09:00pm 16.6 NNE 6 7 1020.3 - 0.8 - - - - - - -
28/08:30pm 16.2 CALM 0 5 1020.4 - 0.8 - - - - - - -
28/08:00pm 16.4 CALM 0 0 1020.4 - 0.8 - - - - - - -
28/07:30pm 17.5 CALM 0 0 1020.0 - 0.8 - - - - - - -
28/07:00pm 18.3 CALM 0 0 1019.8 - 0.8 - - - - - - -
28/06:30pm 17.5 CALM 0 0 1019.1 - 0.8 - - - - - - -
28/06:00pm 18.3 CALM 0 0 1019.0 - 0.8 - - - - - - -
28/05:30pm 19.0 NNE 1 4 1018.7 - 0.8 - - - - - - -
28/05:00pm 19.3 NNE 5 7 1018.4 - 0.8 - - - - - - -
28/04:30pm 19.3 NE 5 8 1018.4 - 0.8 - - - - - - -
28/04:00pm 19.4 NNE 5 8 1018.2 - 0.8 - - - - - - -
28/03:30pm 19.7 N 4 6 1018.0 - 0.8 - - - - - - -
28/03:00pm 19.4 NNW 6 8 1018.2 - 0.8 - - - - - - -
28/02:30pm 19.7 E 9 11 1018.1 - 0.6 - - - - - - -
28/02:00pm 20.2 ESE 11 12 1017.7 - 0.0 - - - - - - -
28/01:30pm 21.1 ESE 9 11 1018.0 - 0.0 - - - - - - -
28/01:00pm 20.6 SE 10 11 1018.1 - 0.0 - - - - - - -
28/12:30pm 20.7 E 10 13 1018.6 - 0.0 - - - - - - -
28/12:00pm 21.6 E 9 11 1018.8 - 0.0 - - - - - - -
28/11:30am 22.6 CALM 0 3 1019.1 - 0.0 - - - - - - -
28/11:00am 22.2 N 6 11 1019.6 - 0.0 - - - - - - -
28/10:30am 22.3 N 6 9 1019.8 - 0.0 - - - - - - -
28/10:00am 20.5 N 8 11 1020.2 - 0.0 - - - - - - -
28/09:30am 19.1 N 8 11 1020.5 - 0.0 - - - - - - -
28/09:00am 17.2 N 10 15 1020.9 - 1.8 - - - - - - -
28/08:30am 16.0 N 10 13 1021.0 - 1.8 - - - - - - -
28/08:00am 15.8 N 10 15 1021.0 - 1.8 - - - - - - -
28/07:30am 15.0 NNE 11 15 1020.9 - 1.8 - - - - - - -
28/07:00am 14.9 NNE 6 8 1021.1 - 1.8 - - - - - - -
28/06:30am 14.9 NNE 8 10 1021.2 - 1.8 - - - - - - -
28/06:00am 14.8 NNE 9 12 1021.0 - 1.8 - - - - - - -
28/05:30am 14.8 NE 10 15 1020.8 - 1.8 - - - - - - -
28/05:00am 14.9 NE 10 15 1020.6 - 1.8 - - - - - - -
28/04:30am 14.9 NE 12 17 1020.6 - 1.8 - - - - - - -
28/04:00am 15.5 NE 11 14 1020.5 - 1.8 - - - - - - -
28/03:30am 14.9 NNE 9 11 1020.9 - 1.8 - - - - - - -
28/03:00am 16.3 ENE 14 19 1020.8 - 1.6 - - - - - - -
28/02:30am 16.2 ENE 15 19 1021.2 - 1.4 - - - - - - -
28/02:22am 16.4 ENE 15 19 1021.3 - 1.4 - - - - - - -
28/02:00am 16.0 NE 7 8 1021.7 - 1.0 - - - - - - -
28/01:30am 16.3 ENE 6 8 1021.9 - 1.0 - - - - - - -
28/01:00am 16.6 NNE 6 10 1021.9 - 0.4 - - - - - - -
28/12:30am 16.1 N 3 6 1022.0 - 0.4 - - - - - - -
28/12:00am 17.6 ENE 13 18 1021.7 - 0.0 - - - - - - -
 
Date/Time
WST
Temp

°C
Wind Pressure Rain
since 9am
mm
Weather Cloud Vis
km
Sea
Height
m
Swell
Dir
 
Speed
knots
Gust
knots
hPa Trend Height
m
Period
s
Dir
27/11:30pm 18.0 NE 11 15 1021.9 - 0.0 - - - - - - -
27/11:00pm 18.4 NE 13 16 1022.0 - 0.0 - - - - - - -
27/10:30pm 18.5 NE 14 19 1022.2 - 0.0 - - - - - - -
27/09:30pm 18.7 NE 14 19 1022.7 - 0.0 - - - - - - -
27/09:00pm 18.9 ENE 15 20 1022.9 - 0.0 - - - - - - -
27/08:30pm 19.0 NE 15 19 1023.2 - 0.0 - - - - - - -
27/08:00pm 19.0 NE 15 20 1023.1 - 0.0 - - - - - - -
27/07:30pm 19.5 ENE 17 23 1023.1 - 0.0 - - - - - - -
27/07:00pm 19.5 ENE 19 22 1023.1 - 0.0 - - - - - - -
27/06:30pm 19.6 ENE 20 22 1023.3 - 0.0 - - - - - - -
27/06:00pm 19.6 E 20 23 1022.8 - 0.0 - - - - - - -
27/05:30pm 19.7 E 19 23 1022.9 - 0.0 - - - - - - -
27/05:00pm 19.8 E 18 21 1023.3 - 0.0 - - - - - - -
27/04:30pm 19.9 E 18 21 1022.9 - 0.0 - - - - - - -
27/04:00pm 20.1 E 18 21 1023.1 - 0.0 - - - - - - -
27/03:30pm 20.1 E 18 21 1022.8 - 0.0 - - - - - - -
27/03:00pm 20.3 E 18 21 1023.0 - 0.0 - - - - - - -
27/02:30pm 20.2 E 19 22 1023.4 - 0.0 - - - - - - -
27/02:00pm 20.2 E 18 21 1023.5 - 0.0 - - - - - - -
27/01:30pm 20.5 E 18 20 1023.9 - 0.0 - - - - - - -
27/01:00pm 20.7 E 17 20 1024.1 - 0.0 - - - - - - -
27/12:30pm 21.0 E 17 19 1024.5 - 0.0 - - - - - - -
27/12:00pm 21.4 E 16 17 1025.1 - 0.0 - - - - - - -
27/11:30am 21.5 E 15 18 1025.7 - 0.0 - - - - - - -
27/11:00am 21.3 E 14 16 1026.3 - 0.0 - - - - - - -
27/10:30am 21.5 E 12 15 1027.0 - 0.0 - - - - - - -
27/10:00am 21.2 NE 10 15 1027.4 - 0.0 - - - - - - -
27/09:30am 21.4 NE 10 16 1027.8 - 0.0 - - - - - - -
27/09:00am 20.4 NE 11 16 1028.0 - 0.0 - - - - - - -
27/08:30am 18.5 NNE 11 15 1028.4 - 0.0 - - - - - - -
27/08:00am 17.8 NNE 13 20 1028.4 - 0.0 - - - - - - -
27/07:30am 16.4 NNE 12 17 1028.4 - 0.0 - - - - - - -
27/07:00am 14.9 NNE 12 17 1028.2 - 0.0 - - - - - - -
27/06:30am 13.1 N 11 15 1028.1 - 0.0 - - - - - - -
27/06:00am 11.7 N 11 15 1028.0 - 0.0 - - - - - - -
27/05:30am 11.9 N 11 15 1027.9 - 0.0 - - - - - - -
27/05:00am 12.2 N 12 16 1027.5 - 0.0 - - - - - - -
27/04:30am 12.3 N 11 14 1027.3 - 0.0 - - - - - - -
27/04:00am 12.4 N 11 14 1027.3 - 0.0 - - - - - - -
27/03:30am 12.7 N 10 13 1027.3 - 0.0 - - - - - - -
27/03:00am 12.9 NNE 9 12 1027.2 - 0.0 - - - - - - -
27/02:30am 13.2 NNE 9 12 1027.5 - 0.0 - - - - - - -
27/02:00am 12.9 N 9 13 1027.5 - 0.0 - - - - - - -
27/01:30am 13.6 NNE 7 10 1027.9 - 0.0 - - - - - - -

Other Formats:

Comma delimited format used in spreadsheet applications
http://www.bom.gov.au/fwo/IDW60701/IDW60701.94644.axf

JavaScript Object Notation format (JSON) in row-major order
http://www.bom.gov.au/fwo/IDW60701/IDW60701.94644.json